Time;durP1;ratioP1;P1;durP2;ratioP2;P2;SDS_P1;SDS_P2;PMS_P1;PMS_P2;Temp;Humidity;BMP_temperature;BMP_pressure;BME280_temperature;BME280_humidity;BME280_pressure;Samples;Min_cycle;Max_cycle;Signal;HPM_P1;HPM_P2
2022/09/02 00:02:25;;;;;;;1.90;1.00;;;20.70;41.10;;;;;;5020414;28;20076;-50
2022/09/02 00:04:52;;;;;;;3.42;0.90;;;20.70;41.10;;;;;;5017603;28;20057;-51
2022/09/02 00:07:20;;;;;;;2.28;0.95;;;20.70;41.20;;;;;;5022111;28;20098;-47
2022/09/02 00:09:47;;;;;;;1.88;0.93;;;20.70;41.30;;;;;;5017900;28;20060;-51
2022/09/02 00:12:14;;;;;;;2.65;1.00;;;20.70;41.40;;;;;;5018184;28;20057;-51
2022/09/02 00:14:41;;;;;;;1.20;0.82;;;20.70;41.40;;;;;;5018284;28;20160;-53
2022/09/02 00:17:08;;;;;;;5.32;1.10;;;20.70;41.40;;;;;;5017402;28;20057;-54
2022/09/02 00:19:38;;;;;;;3.45;1.10;;;20.60;41.30;;;;;;5016711;28;20060;-56
2022/09/02 00:22:05;;;;;;;1.63;1.08;;;20.70;41.50;;;;;;5019428;28;20068;-46
2022/09/02 00:24:32;;;;;;;2.28;0.90;;;20.60;41.50;;;;;;5017504;28;20053;-50
2022/09/02 00:27:00;;;;;;;1.75;0.88;;;20.60;41.40;;;;;;5020232;28;20061;-51
2022/09/02 00:29:27;;;;;;;2.10;1.13;;;20.60;41.50;;;;;;5020644;28;20520;-49
2022/09/02 00:31:55;;;;;;;3.25;1.13;;;20.60;41.60;;;;;;5015204;28;20057;-52
2022/09/02 00:34:22;;;;;;;2.00;0.90;;;20.60;41.60;;;;;;5017651;28;20049;-50
2022/09/02 00:36:51;;;;;;;3.00;1.10;;;20.60;41.70;;;;;;5022064;28;20053;-49
2022/09/02 00:39:19;;;;;;;0.98;0.77;;;20.60;41.70;;;;;;5019240;28;20058;-49
2022/09/02 00:41:46;;;;;;;4.88;1.08;;;20.60;41.60;;;;;;5013232;28;20061;-54
2022/09/02 00:44:16;;;;;;;2.15;0.65;;;20.50;41.50;;;;;;5017749;28;20418;-49
2022/09/02 00:46:44;;;;;;;1.95;0.90;;;20.50;41.60;;;;;;5017584;28;20058;-50
2022/09/02 00:49:15;;;;;;;1.38;1.20;;;20.60;41.60;;;;;;5021647;28;20076;-51
2022/09/02 00:51:49;;;;;;;4.30;1.30;;;20.60;41.70;;;;;;5010724;28;20858;-52
2022/09/02 00:54:21;;;;;;;1.48;0.80;;;20.50;41.70;;;;;;5018711;28;20065;-46
2022/09/02 00:56:50;;;;;;;1.67;0.68;;;20.50;41.50;;;;;;5017885;28;20069;-50
2022/09/02 00:59:22;;;;;;;1.88;1.23;;;20.50;41.70;;;;;;5022075;28;20429;-49
2022/09/02 01:01:50;;;;;;;5.95;0.90;;;20.60;41.80;;;;;;5010846;28;20064;-49
2022/09/02 01:04:17;;;;;;;2.50;1.00;;;20.50;41.80;;;;;;5019722;28;20054;-56
2022/09/02 01:06:45;;;;;;;1.55;0.95;;;20.50;41.70;;;;;;5020444;28;20061;-56
2022/09/02 01:09:15;;;;;;;1.55;1.10;;;20.50;41.80;;;;;;5017890;28;20053;-52
2022/09/02 01:11:46;;;;;;;1.35;0.80;;;20.40;41.80;;;;;;5016393;28;20057;-48
2022/09/02 01:14:14;;;;;;;1.65;1.10;;;20.30;41.90;;;;;;5017209;28;20501;-51
2022/09/02 01:16:44;;;;;;;2.72;1.10;;;20.30;41.90;;;;;;5017420;28;20053;-48
2022/09/02 01:19:21;;;;;;;1.92;1.00;;;20.30;41.90;;;;;;5017422;28;20057;-49
2022/09/02 01:21:51;;;;;;;1.13;0.80;;;20.30;42.10;;;;;;5016449;28;20095;-51
2022/09/02 01:24:22;;;;;;;1.15;0.80;;;20.30;42.20;;;;;;5015023;28;20050;-54
2022/09/02 01:26:52;;;;;;;1.55;0.80;;;20.20;42.20;;;;;;5013343;28;20060;-50
2022/09/02 01:29:19;;;;;;;2.35;0.90;;;20.20;42.30;;;;;;5021789;28;20065;-50
2022/09/02 01:31:47;;;;;;;1.98;1.10;;;20.20;42.40;;;;;;5015735;28;20068;-52
2022/09/02 01:34:14;;;;;;;6.20;0.70;;;20.10;42.40;;;;;;5021307;28;20394;-53
2022/09/02 01:36:43;;;;;;;1.50;0.98;;;20.10;42.60;;;;;;5017916;28;20057;-51
2022/09/02 01:39:13;;;;;;;2.00;1.13;;;20.10;42.60;;;;;;5014617;28;20053;-52
2022/09/02 01:41:40;;;;;;;2.08;1.10;;;20.10;42.70;;;;;;5014190;28;20056;-51
2022/09/02 01:44:09;;;;;;;1.98;0.90;;;20.00;42.70;;;;;;5019823;28;20064;-48
2022/09/02 01:46:36;;;;;;;4.72;0.95;;;20.10;42.80;;;;;;5022290;28;20049;-48
2022/09/02 01:49:04;;;;;;;1.52;1.00;;;20.00;42.80;;;;;;5022546;28;20409;-48
2022/09/02 01:51:32;;;;;;;2.78;1.10;;;20.00;42.80;;;;;;5018307;28;20057;-48
2022/09/02 01:53:59;;;;;;;1.63;0.93;;;20.00;42.80;;;;;;5024476;28;20064;-50
2022/09/02 01:56:28;;;;;;;1.63;0.82;;;19.90;42.80;;;;;;5021080;28;20275;-50
2022/09/02 01:58:55;;;;;;;2.42;0.85;;;20.00;43.00;;;;;;5023361;28;20053;-50
2022/09/02 02:01:22;;;;;;;1.98;0.93;;;19.90;42.90;;;;;;5014542;28;20409;-50
2022/09/02 02:03:50;;;;;;;2.53;1.13;;;19.90;42.90;;;;;;5025281;28;20059;-48
2022/09/02 02:06:18;;;;;;;1.35;0.82;;;19.90;43.00;;;;;;5021986;28;20065;-51
2022/09/02 02:08:45;;;;;;;3.42;1.30;;;19.90;43.10;;;;;;5021797;28;20049;-49
2022/09/02 02:11:18;;;;;;;3.00;0.95;;;19.80;43.10;;;;;;5014719;28;20053;-54
2022/09/02 02:13:46;;;;;;;1.50;0.80;;;19.80;43.10;;;;;;5024622;28;20064;-49
2022/09/02 02:16:14;;;;;;;2.03;1.00;;;19.80;43.10;;;;;;5020075;28;20524;-52
2022/09/02 02:18:41;;;;;;;2.22;1.33;;;19.80;43.10;;;;;;5022596;28;20053;-47
2022/09/02 02:21:08;;;;;;;1.00;0.73;;;19.80;43.20;;;;;;5019207;28;20057;-59
2022/09/02 02:23:36;;;;;;;1.70;1.20;;;19.80;43.10;;;;;;5024716;28;20540;-57
2022/09/02 02:26:03;;;;;;;1.30;0.93;;;19.80;43.20;;;;;;5015562;28;20050;-60
2022/09/02 02:28:31;;;;;;;3.05;1.10;;;19.70;43.10;;;;;;5020972;28;20053;-60
2022/09/02 02:31:00;;;;;;;2.92;0.90;;;19.70;43.10;;;;;;5003170;28;20053;-60
2022/09/02 02:33:27;;;;;;;4.25;1.00;;;19.70;43.30;;;;;;5015624;28;20050;-59
2022/09/02 02:35:55;;;;;;;1.75;1.05;;;19.70;43.30;;;;;;5024310;28;20054;-60
2022/09/02 02:38:23;;;;;;;1.20;0.88;;;19.60;43.30;;;;;;5024233;28;20053;-60
2022/09/02 02:40:54;;;;;;;2.15;0.88;;;19.60;43.40;;;;;;5015023;28;20049;-57
2022/09/02 02:43:21;;;;;;;1.73;0.90;;;19.60;43.50;;;;;;5018102;28;20049;-59
2022/09/02 02:45:49;;;;;;;3.60;0.90;;;19.60;43.50;;;;;;5011893;28;20439;-60
2022/09/02 02:48:18;;;;;;;1.52;0.90;;;19.60;43.60;;;;;;5019053;28;20057;-60
2022/09/02 02:50:45;;;;;;;1.73;1.05;;;19.60;43.60;;;;;;5019574;28;20049;-59
2022/09/02 02:53:13;;;;;;;1.83;1.17;;;19.60;43.50;;;;;;5022414;28;20512;-60
2022/09/02 02:55:40;;;;;;;2.45;1.00;;;19.60;43.70;;;;;;5013989;28;20056;-59
2022/09/02 02:58:07;;;;;;;2.22;0.95;;;19.50;43.80;;;;;;5019613;28;20694;-60
2022/09/02 03:00:35;;;;;;;1.92;0.93;;;19.50;43.70;;;;;;5016681;28;20050;-58
2022/09/02 03:03:05;;;;;;;3.75;0.85;;;19.50;43.70;;;;;;5023722;28;20060;-60
2022/09/02 03:05:36;;;;;;;1.58;0.80;;;19.50;43.80;;;;;;5023857;28;20049;-60
2022/09/02 03:08:06;;;;;;;1.38;0.95;;;19.50;44.00;;;;;;5023257;28;20065;-60
2022/09/02 03:10:34;;;;;;;1.50;0.90;;;19.50;44.00;;;;;;5016192;28;20053;-59
2022/09/02 03:13:03;;;;;;;1.58;0.73;;;19.50;44.00;;;;;;5023667;28;20493;-60
2022/09/02 03:15:30;;;;;;;6.82;1.30;;;19.50;44.10;;;;;;5019244;28;20060;-60
2022/09/02 03:17:58;;;;;;;2.65;0.90;;;19.40;44.10;;;;;;5022794;28;20053;-60
2022/09/02 03:20:26;;;;;;;2.25;1.20;;;19.40;44.10;;;;;;5019669;28;20099;-60
2022/09/02 03:22:55;;;;;;;2.63;1.10;;;19.40;44.10;;;;;;5023286;28;20060;-53
2022/09/02 03:25:24;;;;;;;1.95;0.95;;;19.40;44.00;;;;;;5018810;28;20414;-59
2022/09/02 03:27:52;;;;;;;3.30;1.15;;;19.40;44.10;;;;;;5022078;28;20053;-60
2022/09/02 03:30:23;;;;;;;1.52;0.77;;;19.40;44.20;;;;;;5018804;28;20076;-60
2022/09/02 03:32:50;;;;;;;1.23;0.88;;;19.40;44.20;;;;;;5014841;28;20512;-60
2022/09/02 03:35:19;;;;;;;2.17;1.20;;;19.40;44.20;;;;;;5022119;28;20054;-56
2022/09/02 03:37:46;;;;;;;1.77;0.98;;;19.40;44.30;;;;;;5022070;28;20053;-60
2022/09/02 03:40:19;;;;;;;2.00;1.13;;;19.40;44.40;;;;;;5014877;28;20504;-60
2022/09/02 03:42:46;;;;;;;1.48;1.10;;;19.40;44.40;;;;;;5017136;28;20057;-60
2022/09/02 03:45:15;;;;;;;3.80;0.95;;;19.40;44.40;;;;;;5012442;28;20045;-57
2022/09/02 03:47:49;;;;;;;1.88;0.95;;;19.40;44.50;;;;;;5023153;28;20050;-57
2022/09/02 03:52:26;;;;;;;1.92;0.70;;;19.30;44.40;;;;;;5039657;27;20518;-58
2022/09/02 03:54:53;;;;;;;1.95;1.00;;;19.40;44.40;;;;;;5031477;28;20060;-60
2022/09/02 03:57:24;;;;;;;2.15;1.23;;;19.40;44.50;;;;;;5036203;28;20056;-59
2022/09/02 03:59:52;;;;;;;2.83;1.35;;;19.30;44.50;;;;;;5031909;28;20060;-57
2022/09/02 04:02:19;;;;;;;2.78;1.08;;;19.40;44.70;;;;;;5027174;28;20065;-59
2022/09/02 04:04:47;;;;;;;2.17;0.80;;;19.30;44.60;;;;;;5029714;28;20060;-58
2022/09/02 04:07:14;;;;;;;5.13;0.90;;;19.30;44.60;;;;;;5038528;28;20497;-60
2022/09/02 04:09:42;;;;;;;1.92;1.17;;;19.30;44.60;;;;;;5034472;28;20053;-59
2022/09/02 04:12:10;;;;;;;1.17;0.80;;;19.30;44.60;;;;;;5032854;28;20423;-60
2022/09/02 04:14:37;;;;;;;3.00;1.13;;;19.30;44.60;;;;;;5035172;28;20147;-60
2022/09/02 04:17:04;;;;;;;1.23;0.90;;;19.30;44.60;;;;;;5021164;28;20053;-59
2022/09/02 04:19:31;;;;;;;1.65;1.05;;;19.30;44.80;;;;;;5018479;28;20056;-58
2022/09/02 04:21:58;;;;;;;1.08;0.80;;;19.30;44.70;;;;;;5027391;28;20060;-60
2022/09/02 04:24:26;;;;;;;1.45;0.80;;;19.20;44.70;;;;;;5029521;28;20072;-59
2022/09/02 04:26:54;;;;;;;3.47;0.75;;;19.20;44.80;;;;;;5036128;28;20382;-60
2022/09/02 04:29:23;;;;;;;4.20;0.98;;;19.20;45.20;;;;;;5037787;28;20062;-60
2022/09/02 04:31:50;;;;;;;1.05;0.75;;;19.20;44.70;;;;;;5025759;28;20895;-59
2022/09/02 04:34:17;;;;;;;1.80;1.10;;;19.20;44.80;;;;;;5033564;28;20064;-60
2022/09/02 04:36:44;;;;;;;4.95;1.05;;;19.20;44.80;;;;;;5032556;28;20068;-59
2022/09/02 04:39:12;;;;;;;4.82;1.20;;;19.20;44.80;;;;;;5036904;28;20057;-59
2022/09/02 04:41:39;;;;;;;2.10;0.90;;;19.20;44.90;;;;;;5025512;28;20128;-60
2022/09/02 04:44:08;;;;;;;1.65;1.20;;;19.10;44.90;;;;;;5027428;28;20077;-51
2022/09/02 04:46:35;;;;;;;2.47;1.02;;;19.10;45.00;;;;;;5031725;28;20049;-59
2022/09/02 04:49:03;;;;;;;2.05;1.00;;;19.10;45.00;;;;;;5031740;28;20053;-59
2022/09/02 04:51:31;;;;;;;1.77;0.80;;;19.10;45.00;;;;;;5028125;28;20053;-59
2022/09/02 04:53:58;;;;;;;2.17;1.23;;;19.10;45.00;;;;;;5033112;28;20057;-59
2022/09/02 04:56:28;;;;;;;1.70;1.00;;;19.10;45.00;;;;;;5035128;28;20420;-59
2022/09/02 04:58:56;;;;;;;1.45;0.93;;;19.10;45.00;;;;;;5029496;28;20413;-59
2022/09/02 05:01:28;;;;;;;1.10;0.90;;;19.10;44.90;;;;;;5028114;28;20509;-59
2022/09/02 05:03:56;;;;;;;1.40;0.88;;;19.10;44.80;;;;;;5005314;28;20054;-59
2022/09/02 05:06:26;;;;;;;2.97;1.05;;;19.10;44.80;;;;;;5018755;28;20045;-58
2022/09/02 05:08:54;;;;;;;3.53;0.90;;;19.10;44.70;;;;;;5018719;28;20068;-58
2022/09/02 05:11:27;;;;;;;2.53;0.98;;;19.10;44.70;;;;;;5017692;28;20049;-60
2022/09/02 05:13:56;;;;;;;1.35;0.88;;;19.10;44.70;;;;;;5015349;28;20049;-59
2022/09/02 05:16:27;;;;;;;1.65;0.85;;;19.20;44.70;;;;;;5020401;28;20068;-59
2022/09/02 05:18:55;;;;;;;3.28;1.33;;;19.20;44.70;;;;;;5015301;28;20053;-59
2022/09/02 05:21:23;;;;;;;2.03;1.25;;;19.20;45.10;;;;;;5012065;28;20056;-60
2022/09/02 05:23:51;;;;;;;1.40;0.98;;;19.20;44.70;;;;;;5015512;28;20053;-60
2022/09/02 05:26:18;;;;;;;2.33;1.02;;;19.20;44.70;;;;;;5020796;28;20073;-57
2022/09/02 05:28:46;;;;;;;4.40;1.00;;;19.20;44.60;;;;;;5021272;28;20057;-57
2022/09/02 05:31:16;;;;;;;1.20;0.82;;;19.20;44.60;;;;;;5016231;28;20497;-57
2022/09/02 05:33:45;;;;;;;0.98;0.73;;;19.20;44.60;;;;;;5018612;28;20058;-59
2022/09/02 05:36:14;;;;;;;1.95;1.00;;;19.20;44.60;;;;;;5016050;28;20049;-60
2022/09/02 05:38:43;;;;;;;2.10;0.88;;;19.30;44.60;;;;;;5019015;28;20119;-60
2022/09/02 05:41:13;;;;;;;2.25;1.00;;;19.30;44.50;;;;;;5015540;28;20085;-58
2022/09/02 05:43:43;;;;;;;1.00;0.90;;;19.30;44.60;;;;;;5014404;28;20053;-59
2022/09/02 05:46:13;;;;;;;2.80;0.95;;;19.30;44.50;;;;;;5016472;28;20054;-56
2022/09/02 05:51:27;;;;;;;1.88;1.00;;;19.40;44.40;;;;;;5012655;28;20069;-59
2022/09/02 05:53:55;;;;;;;6.50;1.58;;;19.40;44.40;;;;;;5016478;28;20477;-60
2022/09/02 05:56:23;;;;;;;1.70;0.93;;;19.40;44.50;;;;;;5008898;28;20049;-60
2022/09/02 05:58:52;;;;;;;1.40;0.90;;;19.40;44.50;;;;;;5017202;28;20057;-57
2022/09/02 06:01:20;;;;;;;1.73;1.10;;;19.40;44.40;;;;;;5008027;28;20533;-59
2022/09/02 06:03:47;;;;;;;2.08;1.25;;;19.50;44.50;;;;;;5007020;28;20067;-57
2022/09/02 06:06:14;;;;;;;1.83;1.10;;;19.50;44.50;;;;;;5018903;28;20057;-59
2022/09/02 06:08:43;;;;;;;2.42;1.23;;;19.60;44.70;;;;;;5016816;28;20433;-59
2022/09/02 06:11:12;;;;;;;2.13;1.13;;;19.60;44.80;;;;;;5010088;28;20056;-59
2022/09/02 06:13:42;;;;;;;2.40;1.52;;;19.60;44.70;;;;;;5016360;28;20406;-56
2022/09/02 06:16:13;;;;;;;1.70;1.02;;;19.70;44.80;;;;;;5012625;28;20101;-59
2022/09/02 06:18:41;;;;;;;1.42;1.00;;;19.70;44.80;;;;;;5002987;28;20064;-59
2022/09/02 06:21:09;;;;;;;2.75;0.93;;;19.80;44.90;;;;;;5011240;28;20057;-59
2022/09/02 06:23:38;;;;;;;1.42;1.00;;;19.80;44.80;;;;;;5016950;28;20062;-57
2022/09/02 06:26:16;;;;;;;2.97;1.10;;;19.90;44.90;;;;;;5010917;28;20054;-59
2022/09/02 06:28:43;;;;;;;3.60;1.20;;;20.00;44.90;;;;;;5008860;28;20061;-58
2022/09/02 06:31:13;;;;;;;2.50;1.17;;;20.00;44.60;;;;;;5009538;28;20078;-58
2022/09/02 06:33:42;;;;;;;1.73;1.02;;;20.10;44.70;;;;;;5008774;28;20054;-58
2022/09/02 06:36:12;;;;;;;2.17;1.00;;;20.10;44.70;;;;;;5014100;28;20060;-59
2022/09/02 06:38:43;;;;;;;1.35;0.90;;;20.20;44.60;;;;;;5019584;28;20061;-59
2022/09/02 06:41:13;;;;;;;2.65;1.30;;;20.30;44.40;;;;;;5010147;28;20501;-59
2022/09/02 06:43:40;;;;;;;1.67;0.93;;;20.30;44.30;;;;;;5010574;28;20501;-59
2022/09/02 06:46:08;;;;;;;2.75;1.63;;;20.30;44.40;;;;;;5016704;28;20064;-59
2022/09/02 06:48:36;;;;;;;2.35;1.73;;;20.40;44.40;;;;;;5015905;28;20072;-59
2022/09/02 06:51:03;;;;;;;2.13;1.30;;;20.40;44.20;;;;;;5013990;28;20068;-59
2022/09/02 06:53:30;;;;;;;2.58;1.33;;;20.50;44.30;;;;;;5015955;28;20489;-60
2022/09/02 06:55:57;;;;;;;2.70;1.10;;;20.50;44.00;;;;;;5017216;28;20512;-59
2022/09/02 06:58:26;;;;;;;2.72;1.17;;;20.50;43.80;;;;;;5014668;28;20426;-59
2022/09/02 07:00:53;;;;;;;2.25;1.13;;;20.50;43.70;;;;;;5008744;28;20057;-58
2022/09/02 07:06:08;;;;;;;2.90;1.00;;;20.60;43.80;;;;;;5015026;28;20057;-59
2022/09/02 07:08:37;;;;;;;3.83;1.10;;;20.60;43.60;;;;;;5017886;28;20512;-58
2022/09/02 07:11:05;;;;;;;2.85;1.20;;;20.70;43.60;;;;;;5002120;28;20054;-57
2022/09/02 07:13:34;;;;;;;1.75;1.00;;;20.70;44.00;;;;;;5012184;28;20053;-60
2022/09/02 07:16:03;;;;;;;2.05;1.30;;;20.70;43.80;;;;;;5012029;28;20052;-55
2022/09/02 07:18:30;;;;;;;1.95;1.00;;;20.70;44.20;;;;;;5011220;28;20512;-59
2022/09/02 07:20:57;;;;;;;1.38;0.82;;;20.80;43.80;;;;;;5008895;28;20049;-59
2022/09/02 07:23:25;;;;;;;1.95;1.08;;;20.80;43.90;;;;;;5017819;28;20064;-58
2022/09/02 07:25:54;;;;;;;1.55;1.05;;;20.80;43.80;;;;;;5007319;28;20056;-59
2022/09/02 07:28:22;;;;;;;1.40;0.90;;;20.90;44.10;;;;;;5010807;28;20497;-59
2022/09/02 07:30:53;;;;;;;3.72;1.50;;;20.90;43.80;;;;;;5009551;28;20056;-55
2022/09/02 07:33:21;;;;;;;4.38;1.27;;;20.90;43.70;;;;;;5017409;28;20050;-59
2022/09/02 07:35:49;;;;;;;2.25;1.27;;;21.00;43.70;;;;;;5020131;28;20076;-60
2022/09/02 07:38:16;;;;;;;3.50;1.20;;;21.00;43.60;;;;;;5009935;28;20061;-59
2022/09/02 07:40:45;;;;;;;3.10;1.42;;;21.10;43.60;;;;;;5008685;28;20069;-60
2022/09/02 07:43:13;;;;;;;3.00;1.38;;;21.10;43.70;;;;;;5010648;28;20054;-59
2022/09/02 07:45:42;;;;;;;4.18;1.30;;;21.10;43.40;;;;;;5017993;28;20046;-60
2022/09/02 07:48:11;;;;;;;4.60;1.40;;;21.20;43.40;;;;;;5016587;28;20064;-60
2022/09/02 07:50:38;;;;;;;4.28;1.20;;;21.10;43.50;;;;;;5009982;28;20053;-60
2022/09/02 07:53:06;;;;;;;2.63;1.23;;;21.20;43.40;;;;;;5011541;28;20052;-58
2022/09/02 07:55:34;;;;;;;1.55;1.15;;;21.20;43.20;;;;;;5016433;28;20056;-56
2022/09/02 07:58:03;;;;;;;2.28;1.20;;;21.30;43.30;;;;;;5017743;28;20060;-59
2022/09/02 08:00:31;;;;;;;3.38;1.40;;;21.30;43.20;;;;;;5011099;28;20045;-59
2022/09/02 08:03:00;;;;;;;4.10;1.10;;;21.40;43.20;;;;;;5016237;28;20053;-60
2022/09/02 08:05:29;;;;;;;2.00;1.10;;;21.40;43.20;;;;;;5015475;28;20493;-59
2022/09/02 08:07:57;;;;;;;2.35;1.10;;;21.40;43.20;;;;;;5016732;28;20490;-60
2022/09/02 08:10:26;;;;;;;2.22;1.40;;;21.40;43.00;;;;;;5010939;28;20053;-56
2022/09/02 08:12:53;;;;;;;2.70;1.40;;;21.50;43.10;;;;;;5020123;28;20389;-60
2022/09/02 08:15:21;;;;;;;3.20;1.40;;;21.50;43.10;;;;;;5011450;28;20068;-59
2022/09/02 08:17:49;;;;;;;4.20;1.15;;;21.60;43.10;;;;;;5015546;28;20500;-60
2022/09/02 08:20:17;;;;;;;2.47;1.20;;;21.60;43.00;;;;;;5012112;28;20046;-59
2022/09/02 08:22:45;;;;;;;3.17;1.27;;;21.70;43.30;;;;;;5017003;28;20489;-60
2022/09/02 08:25:13;;;;;;;2.20;1.08;;;21.70;43.10;;;;;;5015292;28;20069;-61
2022/09/02 08:27:40;;;;;;;3.55;1.27;;;21.80;43.00;;;;;;5015136;28;20069;-61
2022/09/02 08:30:09;;;;;;;8.05;1.15;;;21.80;42.90;;;;;;5006631;28;20049;-60
2022/09/02 08:32:37;;;;;;;2.78;1.13;;;21.90;43.00;;;;;;5013357;28;20388;-59
2022/09/02 08:35:05;;;;;;;17.50;2.85;;;21.90;42.80;;;;;;5016334;28;20875;-59
2022/09/02 08:37:34;;;;;;;2.20;1.20;;;22.00;43.10;;;;;;5015689;28;20394;-57
2022/09/02 08:40:05;;;;;;;2.63;1.08;;;22.00;42.50;;;;;;5008950;28;20054;-60
2022/09/02 08:42:36;;;;;;;2.38;1.30;;;22.10;42.60;;;;;;5017134;28;20053;-58
2022/09/02 08:45:08;;;;;;;1.38;1.10;;;22.20;42.60;;;;;;5020307;28;20060;-55
2022/09/02 08:47:38;;;;;;;2.42;1.10;;;22.20;42.20;;;;;;5020918;28;20060;-59
2022/09/02 08:50:10;;;;;;;6.47;1.10;;;22.20;42.10;;;;;;5008945;28;20069;-59
2022/09/02 08:52:42;;;;;;;1.63;1.10;;;22.30;42.40;;;;;;5009176;28;20065;-60
2022/09/02 08:55:18;;;;;;;4.25;1.33;;;22.30;42.00;;;;;;5012000;28;20057;-60
2022/09/02 08:57:46;;;;;;;3.95;1.23;;;22.40;42.00;;;;;;5011242;28;20057;-60
2022/09/02 09:00:14;;;;;;;4.22;1.50;;;22.40;41.60;;;;;;5009915;28;20100;-58
2022/09/02 09:02:55;;;;;;;1.70;1.10;;;22.50;41.30;;;;;;5017602;28;20060;-59
2022/09/02 09:05:43;;;;;;;3.72;1.05;;;22.50;41.00;;;;;;5021910;28;20072;-59
2022/09/02 09:08:19;;;;;;;3.95;1.00;;;22.60;41.50;;;;;;5021863;28;20484;-59
2022/09/02 09:10:58;;;;;;;1.20;0.98;;;22.60;40.80;;;;;;5013020;28;20050;-58
2022/09/02 09:13:46;;;;;;;1.92;1.00;;;22.70;40.40;;;;;;5018315;28;20050;-59
2022/09/02 09:16:22;;;;;;;1.75;1.20;;;22.80;40.30;;;;;;5013513;28;20049;-58
2022/09/02 09:18:56;;;;;;;2.33;0.98;;;22.80;40.10;;;;;;5009905;28;20493;-58
2022/09/02 09:21:24;;;;;;;;;;;23.00;40.20;;;;;;5008860;28;20733;-55
2022/09/02 09:23:53;;;;;;;2.42;1.10;;;23.10;40.40;;;;;;5007057;28;20296;-59
2022/09/02 09:26:27;;;;;;;1.90;1.17;;;23.20;39.80;;;;;;5015896;28;20057;-56
2022/09/02 09:28:58;;;;;;;2.28;1.00;;;23.20;39.70;;;;;;5018515;28;20045;-59
2022/09/02 09:31:30;;;;;;;0.93;0.80;;;23.30;39.50;;;;;;5013851;28;20052;-59
2022/09/02 09:33:58;;;;;;;1.98;1.20;;;23.40;39.30;;;;;;5014601;28;20045;-54
2022/09/02 09:36:50;;;;;;;3.08;1.10;;;23.50;39.20;;;;;;5020104;28;20060;-60
2022/09/02 09:39:19;;;;;;;4.50;1.08;;;23.60;38.60;;;;;;5020386;28;20072;-59
2022/09/02 09:41:49;;;;;;;2.95;1.10;;;23.70;38.30;;;;;;5015977;28;20056;-59
2022/09/02 09:44:39;;;;;;;2.47;0.88;;;23.80;38.30;;;;;;5018202;28;20516;-59
2022/09/02 09:47:08;;;;;;;1.83;0.90;;;23.80;38.30;;;;;;5013537;28;20064;-59
2022/09/02 09:49:35;;;;;;;2.33;1.17;;;23.90;38.30;;;;;;5010494;28;20505;-56
2022/09/02 09:52:03;;;;;;;1.88;1.08;;;24.00;38.00;;;;;;5015066;28;20053;-59
2022/09/02 09:54:31;;;;;;;1.83;1.05;;;24.00;37.30;;;;;;5021129;28;20049;-55
2022/09/02 09:57:16;;;;;;;1.52;0.90;;;24.10;37.20;;;;;;5020487;28;20056;-59
2022/09/02 09:59:48;;;;;;;2.00;1.00;;;24.10;36.90;;;;;;5014746;28;20425;-59
2022/09/02 10:02:23;;;;;;;3.03;0.95;;;24.20;37.10;;;;;;5011555;28;20065;-59
2022/09/02 10:04:52;;;;;;;4.57;1.02;;;24.20;37.10;;;;;;5017370;28;20056;-60
2022/09/02 10:07:37;;;;;;;1.98;1.13;;;24.20;36.40;;;;;;5016496;28;20058;-57
2022/09/02 10:10:19;;;;;;;3.60;1.30;;;24.30;36.20;;;;;;5009836;28;20053;-56
2022/09/02 10:12:49;;;;;;;1.92;1.00;;;24.30;36.60;;;;;;5015896;28;20052;-54
2022/09/02 10:15:24;;;;;;;8.73;1.30;;;24.40;36.50;;;;;;5016071;28;20061;-57
2022/09/02 10:18:00;;;;;;;6.95;0.90;;;24.40;36.00;;;;;;5009107;28;20590;-61
2022/09/02 10:20:37;;;;;;;4.40;1.35;;;24.40;36.00;;;;;;5013203;28;20053;-60
2022/09/02 10:23:17;;;;;;;3.63;1.02;;;24.40;36.10;;;;;;5011988;28;20056;-59
2022/09/02 10:25:58;;;;;;;1.30;1.10;;;24.50;35.20;;;;;;5016375;28;20536;-60
2022/09/02 10:28:43;;;;;;;1.48;0.90;;;24.50;35.10;;;;;;5017752;28;20437;-60
2022/09/02 10:31:19;;;;;;;3.63;1.20;;;24.60;35.30;;;;;;5009632;28;20061;-60
2022/09/02 10:33:57;;;;;;;1.20;0.90;;;24.60;35.40;;;;;;5021408;28;20068;-59
2022/09/02 10:36:35;;;;;;;3.50;0.80;;;24.70;35.20;;;;;;5018953;28;20053;-57
2022/09/02 10:39:11;;;;;;;3.33;0.82;;;24.70;35.10;;;;;;5012212;28;20060;-56
2022/09/02 10:41:45;;;;;;;0.82;0.70;;;24.70;35.10;;;;;;5011441;28;20053;-59
2022/09/02 10:44:29;;;;;;;1.35;0.70;;;24.80;34.60;;;;;;5016666;28;20046;-59
2022/09/02 10:47:01;;;;;;;2.88;0.80;;;24.80;34.40;;;;;;5016892;28;20489;-58
2022/09/02 10:49:43;;;;;;;4.35;0.70;;;24.80;34.40;;;;;;5016118;28;20053;-57
2022/09/02 10:52:23;;;;;;;1.38;0.75;;;24.90;34.30;;;;;;5017489;28;20059;-56
2022/09/02 10:54:57;;;;;;;2.55;1.02;;;25.00;34.20;;;;;;5019066;28;20053;-58
2022/09/02 10:57:28;;;;;;;;;;;25.00;33.40;;;;;;5017423;28;20046;-60
2022/09/02 11:00:04;;;;;;;1.17;0.90;;;25.00;34.30;;;;;;5007657;28;19929;-59
2022/09/02 11:02:37;;;;;;;7.18;0.90;;;25.10;33.70;;;;;;5011117;28;20062;-59
2022/09/02 11:05:11;;;;;;;3.30;1.00;;;25.00;33.30;;;;;;5014634;28;20061;-58
2022/09/02 11:07:47;;;;;;;2.65;1.20;;;25.10;33.50;;;;;;5012680;28;20443;-57
2022/09/02 11:10:19;;;;;;;1.48;1.00;;;25.10;33.40;;;;;;5009682;28;20057;-58
2022/09/02 11:12:52;;;;;;;2.10;1.00;;;25.10;33.40;;;;;;5015182;28;20049;-59
2022/09/02 11:15:28;;;;;;;2.25;1.20;;;25.20;33.10;;;;;;5018048;28;20053;-55
2022/09/02 11:18:02;;;;;;;1.67;0.95;;;25.10;32.50;;;;;;5016434;28;20052;-58
2022/09/02 11:20:37;;;;;;;1.38;0.95;;;25.20;32.80;;;;;;5010812;28;20505;-54
2022/09/02 11:23:16;;;;;;;1.52;0.90;;;25.20;32.80;;;;;;5017734;28;20062;-59
2022/09/02 11:25:51;;;;;;;1.42;0.93;;;25.20;32.60;;;;;;5016700;28;20053;-57
2022/09/02 11:28:28;;;;;;;1.48;0.82;;;25.20;33.00;;;;;;5017642;28;20060;-59
2022/09/02 11:31:06;;;;;;;8.65;1.20;;;25.20;32.60;;;;;;5005065;28;20060;-53
2022/09/02 11:33:44;;;;;;;1.40;0.88;;;25.30;32.20;;;;;;5013654;28;20065;-56
2022/09/02 11:36:11;;;;;;;3.05;1.30;;;25.30;32.20;;;;;;5019378;28;20049;-59
2022/09/02 11:38:44;;;;;;;1.85;1.00;;;25.30;32.30;;;;;;5011293;28;20057;-55
2022/09/02 11:41:25;;;;;;;2.95;0.82;;;25.30;32.00;;;;;;5004228;28;21196;-58
2022/09/02 11:43:56;;;;;;;1.25;0.63;;;25.40;32.00;;;;;;5016166;28;20046;-58
2022/09/02 11:46:47;;;;;;;1.25;0.90;;;25.40;32.00;;;;;;5013489;28;20068;-59
2022/09/02 11:49:48;;;;;;;1.98;0.90;;;25.40;31.80;;;;;;5017832;28;21653;-57
2022/09/02 11:52:43;;;;;;;2.45;1.10;;;25.40;31.90;;;;;;5011261;28;20058;-55
2022/09/02 11:55:16;;;;;;;4.22;1.15;;;25.40;32.60;;;;;;5013863;28;20045;-56
2022/09/02 11:57:43;;;;;;;3.17;0.93;;;25.50;32.20;;;;;;5015774;28;20053;-56
2022/09/02 12:00:25;;;;;;;1.70;1.10;;;25.50;32.20;;;;;;5014087;28;20054;-58
2022/09/02 12:03:00;;;;;;;1.48;1.00;;;25.50;32.00;;;;;;5018524;28;20510;-58
2022/09/02 12:06:06;;;;;;;2.35;0.85;;;25.50;32.20;;;;;;5017793;28;20057;-58
2022/09/02 12:08:56;;;;;;;2.22;1.08;;;25.50;32.30;;;;;;5020283;28;20064;-55
2022/09/02 12:11:47;;;;;;;2.35;1.20;;;25.60;32.90;;;;;;5012609;28;20409;-57
2022/09/02 12:15:04;;;;;;;1.75;1.30;;;25.60;32.40;;;;;;5020438;28;20042;-57
2022/09/02 12:17:42;;;;;;;1.48;0.90;;;25.60;32.10;;;;;;5017255;28;20049;-59
2022/09/02 12:20:31;;;;;;;3.30;1.00;;;25.70;32.10;;;;;;5020217;28;20414;-58
2022/09/02 12:22:59;;;;;;;7.55;1.15;;;25.70;32.10;;;;;;5020050;28;21003;-60
2022/09/02 12:25:41;;;;;;;3.53;1.25;;;25.70;31.80;;;;;;5020787;28;20045;-58
2022/09/02 12:28:22;;;;;;;4.07;1.40;;;25.70;31.60;;;;;;5025075;28;20056;-58
2022/09/02 12:31:16;;;;;;;4.28;1.27;;;25.70;32.30;;;;;;5018012;28;20072;-57
2022/09/02 12:33:45;;;;;;;3.38;0.88;;;25.70;31.90;;;;;;5023485;28;20057;-56
2022/09/02 12:36:48;;;;;;;8.80;1.10;;;25.70;31.90;;;;;;5024044;28;20072;-60
2022/09/02 12:39:53;;;;;;;4.25;1.10;;;25.70;31.20;;;;;;5021446;28;20054;-59
2022/09/02 12:42:26;;;;;;;4.32;1.20;;;25.70;31.20;;;;;;5022436;28;20062;-60
2022/09/02 12:45:04;;;;;;;1.33;0.90;;;25.70;31.40;;;;;;5019424;28;20057;-55
2022/09/02 12:47:44;;;;;;;2.13;1.70;;;25.70;31.30;;;;;;5018535;28;20128;-58
2022/09/02 12:50:19;;;;;;;37.58;19.15;;;25.80;31.30;;;;;;5017293;28;20074;-59
2022/09/02 12:52:49;;;;;;;10.55;6.40;;;25.80;31.10;;;;;;5023040;28;20516;-59
2022/09/02 12:55:24;;;;;;;4.63;2.30;;;25.80;31.30;;;;;;5021320;28;20058;-58
2022/09/02 12:57:54;;;;;;;2.63;1.48;;;25.80;31.10;;;;;;5019228;28;20053;-59
2022/09/02 13:00:35;;;;;;;1.38;0.90;;;25.80;31.00;;;;;;5015868;28;20049;-58
2022/09/02 13:03:17;;;;;;;5.63;0.98;;;25.90;31.00;;;;;;5014931;28;20434;-54
2022/09/02 13:05:54;;;;;;;1.90;0.98;;;25.90;30.80;;;;;;5022503;28;20053;-58
2022/09/02 13:08:55;;;;;;;5.65;0.95;;;25.90;30.60;;;;;;5018268;28;20060;-58
2022/09/02 13:11:47;;;;;;;6.13;1.40;;;26.00;30.80;;;;;;5013435;28;20057;-58
2022/09/02 13:14:39;;;;;;;3.47;1.13;;;26.00;30.10;;;;;;5021092;28;20401;-59
2022/09/02 13:17:23;;;;;;;1.20;0.77;;;26.00;30.40;;;;;;5021695;28;20061;-58
2022/09/02 13:20:03;;;;;;;;;;;26.00;30.40;;;;;;5007813;28;20516;-58